KCGS

College Park Airport

College Park, Maryland, USA
METAR KCGS 161222Z AUTO 01003KT 3SM BKN007 OVC011 07/06 A2987 RMK AO1 T00650058
Observed Flight Rules
Dec-16 @ 12:22 UTC (24 minutes ago) Instrument Flight Rules
Wind Visibility Clouds
10° at 3 knots 3 miles
  • Broken at 700' AGL
  • Overcast at 1,100' AGL
Temperatures Readings
Current 7°C / 45°F
Dewpoint 6°C / 43°F
Humidity 93%
Altimeter 29.87" Hg
Pressure 1012 hPa
Elevation 15
METAR KCGS 161222Z AUTO 01003KT 3SM BKN007 OVC011 07/06 A2987 RMK AO1 T00650058
Observed Flight Rules
Dec-16 @ 12:22 UTC
(24 minutes ago)
IFR
Wind Visibility
10° at 3 knots 3 miles
Clouds
  • Broken at 700' AGL
  • Overcast at 1,100' AGL
Temperature Dewpoint
7°C / 45°F 6°C / 43°F
Humidity Altimeter Pressure
93% 29.87" Hg 1012 hPa